sensor_id;sensor_type;location;lat;lon;timestamp;pressure;altitude;pressure_sealevel;temperature;humidity
35291;BME280;21411;50.024;19.220;2023-04-28T00:00:17;99409.10;;;3.04;99.85
35291;BME280;21411;50.024;19.220;2023-04-28T00:03:04;99409.77;;;3.06;99.98
35291;BME280;21411;50.024;19.220;2023-04-28T00:05:30;99410.17;;;3.04;100.00
35291;BME280;21411;50.024;19.220;2023-04-28T00:07:57;99409.57;;;3.01;100.00
35291;BME280;21411;50.024;19.220;2023-04-28T00:10:23;99406.84;;;2.98;100.00
35291;BME280;21411;50.024;19.220;2023-04-28T01:26:24;99409.90;;;2.26;100.00
35291;BME280;21411;50.024;19.220;2023-04-28T01:28:51;99410.85;;;2.24;100.00
35291;BME280;21411;50.024;19.220;2023-04-28T01:31:17;99410.05;;;2.20;100.00
35291;BME280;21411;50.024;19.220;2023-04-28T01:33:44;99410.04;;;2.14;100.00
35291;BME280;21411;50.024;19.220;2023-04-28T01:36:10;99411.58;;;2.08;100.00
35291;BME280;21411;50.024;19.220;2023-04-28T01:38:37;99410.30;;;2.04;100.00
35291;BME280;21411;50.024;19.220;2023-04-28T01:41:04;99413.76;;;1.99;100.00
35291;BME280;21411;50.024;19.220;2023-04-28T01:43:31;99407.89;;;1.95;100.00
35291;BME280;21411;50.024;19.220;2023-04-28T03:46:44;99398.28;;;1.13;100.00
35291;BME280;21411;50.024;19.220;2023-04-28T03:49:11;99397.67;;;1.17;100.00
35291;BME280;21411;50.024;19.220;2023-04-28T03:51:37;99399.46;;;1.22;100.00
35291;BME280;21411;50.024;19.220;2023-04-28T03:54:04;99392.86;;;1.36;100.00
35291;BME280;21411;50.024;19.220;2023-04-28T03:56:30;99387.98;;;1.57;100.00
35291;BME280;21411;50.024;19.220;2023-04-28T03:58:57;99383.27;;;1.99;100.00
35291;BME280;21411;50.024;19.220;2023-04-28T04:01:24;99378.46;;;2.53;100.00
35291;BME280;21411;50.024;19.220;2023-04-28T04:03:53;99375.27;;;3.03;100.00
35291;BME280;21411;50.024;19.220;2023-04-28T04:06:20;99368.23;;;3.59;100.00
35291;BME280;21411;50.024;19.220;2023-04-28T04:08:47;99362.67;;;4.15;100.00
35291;BME280;21411;50.024;19.220;2023-04-28T04:11:13;99361.04;;;4.75;100.00
35291;BME280;21411;50.024;19.220;2023-04-28T04:13:40;99359.02;;;5.32;100.00
35291;BME280;21411;50.024;19.220;2023-04-28T04:16:06;99356.74;;;5.88;100.00
35291;BME280;21411;50.024;19.220;2023-04-28T04:18:33;99359.84;;;6.44;99.60
35291;BME280;21411;50.024;19.220;2023-04-28T04:20:59;99357.84;;;7.00;96.44
35291;BME280;21411;50.024;19.220;2023-04-28T04:23:26;99357.91;;;7.50;93.18
35291;BME280;21411;50.024;19.220;2023-04-28T04:25:52;99359.27;;;7.98;90.71
35291;BME280;21411;50.024;19.220;2023-04-28T04:28:19;99359.55;;;8.51;88.73
35291;BME280;21411;50.024;19.220;2023-04-28T04:30:45;99360.73;;;8.99;85.99
35291;BME280;21411;50.024;19.220;2023-04-28T04:33:12;99359.35;;;9.40;84.15
35291;BME280;21411;50.024;19.220;2023-04-28T04:35:38;99358.30;;;9.80;82.40
35291;BME280;21411;50.024;19.220;2023-04-28T04:38:05;99360.63;;;9.99;80.83
35291;BME280;21411;50.024;19.220;2023-04-28T04:40:32;99360.20;;;10.27;79.39
35291;BME280;21411;50.024;19.220;2023-04-28T04:42:59;99361.35;;;10.58;77.77
35291;BME280;21411;50.024;19.220;2023-04-28T04:45:27;99359.91;;;10.78;76.63
35291;BME280;21411;50.024;19.220;2023-04-28T04:47:53;99361.78;;;11.05;75.78
35291;BME280;21411;50.024;19.220;2023-04-28T04:50:20;99362.72;;;11.35;74.46
35291;BME280;21411;50.024;19.220;2023-04-28T04:52:46;99356.05;;;11.62;73.75
35291;BME280;21411;50.024;19.220;2023-04-28T04:55:13;99351.98;;;11.91;72.15
35291;BME280;21411;50.024;19.220;2023-04-28T04:57:39;99349.61;;;12.03;71.07
35291;BME280;21411;50.024;19.220;2023-04-28T05:00:06;99351.07;;;12.07;70.29
35291;BME280;21411;50.024;19.220;2023-04-28T05:02:33;99353.19;;;12.11;69.38
35291;BME280;21411;50.024;19.220;2023-04-28T05:04:59;99351.63;;;12.23;68.96
35291;BME280;21411;50.024;19.220;2023-04-28T05:07:26;99353.17;;;12.40;68.35
35291;BME280;21411;50.024;19.220;2023-04-28T05:09:52;99353.27;;;12.57;67.94
35291;BME280;21411;50.024;19.220;2023-04-28T05:12:19;99354.01;;;12.69;67.05
35291;BME280;21411;50.024;19.220;2023-04-28T05:14:45;99358.48;;;12.81;66.36
35291;BME280;21411;50.024;19.220;2023-04-28T05:17:12;99357.75;;;12.94;65.67
35291;BME280;21411;50.024;19.220;2023-04-28T05:19:39;99359.56;;;12.99;65.01
35291;BME280;21411;50.024;19.220;2023-04-28T05:22:05;99365.23;;;13.07;64.21
35291;BME280;21411;50.024;19.220;2023-04-28T05:24:32;99362.25;;;13.08;63.46
35291;BME280;21411;50.024;19.220;2023-04-28T05:27:00;99361.59;;;13.08;63.25
35291;BME280;21411;50.024;19.220;2023-04-28T05:29:27;99360.13;;;13.08;62.82
35291;BME280;21411;50.024;19.220;2023-04-28T05:31:53;99360.48;;;13.04;62.19
35291;BME280;21411;50.024;19.220;2023-04-28T05:34:20;99360.84;;;13.06;61.92
35291;BME280;21411;50.024;19.220;2023-04-28T05:36:46;99359.96;;;13.08;61.59
35291;BME280;21411;50.024;19.220;2023-04-28T05:39:13;99360.80;;;13.09;61.33
35291;BME280;21411;50.024;19.220;2023-04-28T05:41:39;99356.10;;;13.10;60.69
35291;BME280;21411;50.024;19.220;2023-04-28T05:44:06;99360.89;;;13.15;60.56
35291;BME280;21411;50.024;19.220;2023-04-28T05:46:33;99359.63;;;13.28;60.40
35291;BME280;21411;50.024;19.220;2023-04-28T05:48:59;99357.61;;;13.42;59.85
35291;BME280;21411;50.024;19.220;2023-04-28T05:51:26;99356.42;;;13.53;59.63
35291;BME280;21411;50.024;19.220;2023-04-28T05:53:52;99356.19;;;13.75;59.29
35291;BME280;21411;50.024;19.220;2023-04-28T05:56:19;99359.80;;;13.96;58.82
35291;BME280;21411;50.024;19.220;2023-04-28T05:58:46;99357.67;;;14.08;58.44
35291;BME280;21411;50.024;19.220;2023-04-28T06:01:13;99355.02;;;14.22;57.17
35291;BME280;21411;50.024;19.220;2023-04-28T06:03:39;99352.31;;;14.29;56.65
35291;BME280;21411;50.024;19.220;2023-04-28T06:06:07;99354.66;;;14.24;56.28
35291;BME280;21411;50.024;19.220;2023-04-28T06:08:34;99356.76;;;14.27;55.83
35291;BME280;21411;50.024;19.220;2023-04-28T06:11:00;99357.33;;;14.29;55.45
35291;BME280;21411;50.024;19.220;2023-04-28T06:13:27;99358.88;;;14.25;55.40
35291;BME280;21411;50.024;19.220;2023-04-28T06:15:54;99357.86;;;14.31;55.34
35291;BME280;21411;50.024;19.220;2023-04-28T06:18:20;99357.09;;;14.53;54.85
35291;BME280;21411;50.024;19.220;2023-04-28T06:20:48;99358.04;;;14.47;54.72
35291;BME280;21411;50.024;19.220;2023-04-28T06:23:15;99359.71;;;14.35;54.33
35291;BME280;21411;50.024;19.220;2023-04-28T06:25:42;99360.73;;;14.17;54.30
35291;BME280;21411;50.024;19.220;2023-04-28T06:28:08;99357.89;;;14.12;54.54
35291;BME280;21411;50.024;19.220;2023-04-28T06:30:35;99357.77;;;14.09;54.60
35291;BME280;21411;50.024;19.220;2023-04-28T06:33:02;99354.86;;;14.05;54.40
35291;BME280;21411;50.024;19.220;2023-04-28T06:35:28;99352.70;;;13.95;54.06
35291;BME280;21411;50.024;19.220;2023-04-28T06:37:55;99348.54;;;13.84;54.19
35291;BME280;21411;50.024;19.220;2023-04-28T06:40:21;99348.68;;;13.82;54.41
35291;BME280;21411;50.024;19.220;2023-04-28T06:42:48;99350.71;;;13.84;54.74
35291;BME280;21411;50.024;19.220;2023-04-28T06:45:15;99354.66;;;13.91;54.65
35291;BME280;21411;50.024;19.220;2023-04-28T06:47:41;99352.02;;;13.93;54.38
35291;BME280;21411;50.024;19.220;2023-04-28T06:50:08;99352.42;;;13.95;54.58
35291;BME280;21411;50.024;19.220;2023-04-28T06:52:35;99353.66;;;14.09;54.64
35291;BME280;21411;50.024;19.220;2023-04-28T06:55:01;99352.66;;;14.20;54.60
35291;BME280;21411;50.024;19.220;2023-04-28T06:57:28;99346.09;;;14.34;54.47
35291;BME280;21411;50.024;19.220;2023-04-28T06:59:54;99346.61;;;14.48;54.19
35291;BME280;21411;50.024;19.220;2023-04-28T07:02:21;99341.33;;;14.63;54.03
35291;BME280;21411;50.024;19.220;2023-04-28T07:04:48;99339.15;;;14.63;53.60
35291;BME280;21411;50.024;19.220;2023-04-28T07:07:14;99340.35;;;14.68;53.74
35291;BME280;21411;50.024;19.220;2023-04-28T07:09:41;99341.73;;;14.78;53.39
35291;BME280;21411;50.024;19.220;2023-04-28T07:12:07;99340.00;;;14.82;52.93
35291;BME280;21411;50.024;19.220;2023-04-28T07:14:34;99339.38;;;14.88;52.97
35291;BME280;21411;50.024;19.220;2023-04-28T07:17:01;99337.84;;;14.98;53.13
35291;BME280;21411;50.024;19.220;2023-04-28T07:19:28;99336.46;;;15.15;53.34
35291;BME280;21411;50.024;19.220;2023-04-28T07:21:54;99335.58;;;15.24;52.78
35291;BME280;21411;50.024;19.220;2023-04-28T07:24:21;99333.79;;;15.26;52.70
35291;BME280;21411;50.024;19.220;2023-04-28T07:26:49;99333.61;;;15.31;52.58
35291;BME280;21411;50.024;19.220;2023-04-28T07:29:15;99332.12;;;15.31;52.34
35291;BME280;21411;50.024;19.220;2023-04-28T07:31:42;99328.80;;;15.28;51.91
35291;BME280;21411;50.024;19.220;2023-04-28T07:34:08;99327.95;;;15.23;51.86
35291;BME280;21411;50.024;19.220;2023-04-28T07:36:35;99327.63;;;15.16;51.97
35291;BME280;21411;50.024;19.220;2023-04-28T07:39:01;99317.48;;;15.24;52.21
35291;BME280;21411;50.024;19.220;2023-04-28T07:41:28;99315.33;;;15.20;51.03
35291;BME280;21411;50.024;19.220;2023-04-28T07:43:55;99314.58;;;15.05;50.79
35291;BME280;21411;50.024;19.220;2023-04-28T07:46:22;99313.67;;;14.96;50.57
35291;BME280;21411;50.024;19.220;2023-04-28T07:48:48;99310.66;;;14.84;49.71
35291;BME280;21411;50.024;19.220;2023-04-28T07:51:15;99310.27;;;14.74;49.78
35291;BME280;21411;50.024;19.220;2023-04-28T07:53:42;99305.16;;;14.75;49.80
35291;BME280;21411;50.024;19.220;2023-04-28T07:56:08;99306.71;;;14.80;50.37
35291;BME280;21411;50.024;19.220;2023-04-28T07:58:35;99306.23;;;14.95;50.11
35291;BME280;21411;50.024;19.220;2023-04-28T08:01:01;99307.20;;;15.03;49.61
35291;BME280;21411;50.024;19.220;2023-04-28T08:03:28;99301.84;;;15.12;49.31
35291;BME280;21411;50.024;19.220;2023-04-28T08:05:55;99299.30;;;15.21;48.80
35291;BME280;21411;50.024;19.220;2023-04-28T08:08:22;99300.90;;;15.39;48.76
35291;BME280;21411;50.024;19.220;2023-04-28T08:10:49;99297.21;;;15.53;48.31
35291;BME280;21411;50.024;19.220;2023-04-28T08:13:15;99296.13;;;15.51;47.61
35291;BME280;21411;50.024;19.220;2023-04-28T08:15:42;99295.02;;;15.47;47.78
35291;BME280;21411;50.024;19.220;2023-04-28T08:18:08;99292.02;;;15.46;47.43
35291;BME280;21411;50.024;19.220;2023-04-28T08:20:35;99290.84;;;15.43;46.92
35291;BME280;21411;50.024;19.220;2023-04-28T08:23:01;99288.52;;;15.48;47.16
35291;BME280;21411;50.024;19.220;2023-04-28T08:25:28;99287.63;;;15.61;47.22
35291;BME280;21411;50.024;19.220;2023-04-28T08:27:56;99286.45;;;15.73;46.40
35291;BME280;21411;50.024;19.220;2023-04-28T08:30:22;99285.39;;;15.79;46.00
35291;BME280;21411;50.024;19.220;2023-04-28T08:32:49;99278.27;;;15.87;46.00
35291;BME280;21411;50.024;19.220;2023-04-28T08:35:15;99271.09;;;15.98;46.30
35291;BME280;21411;50.024;19.220;2023-04-28T08:37:42;99269.88;;;16.08;46.12
35291;BME280;21411;50.024;19.220;2023-04-28T08:40:09;99269.75;;;16.20;46.38
35291;BME280;21411;50.024;19.220;2023-04-28T08:42:37;99268.39;;;16.36;46.44
35291;BME280;21411;50.024;19.220;2023-04-28T08:45:05;99266.77;;;16.49;45.93
35291;BME280;21411;50.024;19.220;2023-04-28T08:47:36;99265.41;;;16.50;45.70
35291;BME280;21411;50.024;19.220;2023-04-28T08:50:05;99260.42;;;16.41;45.60
35291;BME280;21411;50.024;19.220;2023-04-28T08:52:32;99257.38;;;16.39;44.81
35291;BME280;21411;50.024;19.220;2023-04-28T08:55:00;99257.61;;;16.38;44.16
35291;BME280;21411;50.024;19.220;2023-04-28T08:57:35;99255.44;;;16.38;43.95
35291;BME280;21411;50.024;19.220;2023-04-28T09:00:04;99253.23;;;16.31;43.22
35291;BME280;21411;50.024;19.220;2023-04-28T09:02:31;99254.13;;;16.23;43.09
35291;BME280;21411;50.024;19.220;2023-04-28T09:04:58;99254.41;;;16.25;43.05
35291;BME280;21411;50.024;19.220;2023-04-28T09:07:24;99249.48;;;16.27;42.91
35291;BME280;21411;50.024;19.220;2023-04-28T09:10:14;99243.92;;;16.33;43.16
35291;BME280;21411;50.024;19.220;2023-04-28T09:12:41;99238.69;;;16.48;42.63
35291;BME280;21411;50.024;19.220;2023-04-28T09:15:09;99237.98;;;16.43;41.45
35291;BME280;21411;50.024;19.220;2023-04-28T09:17:49;99235.39;;;16.40;42.19
35291;BME280;21411;50.024;19.220;2023-04-28T09:20:23;99233.86;;;16.57;42.52
35291;BME280;21411;50.024;19.220;2023-04-28T09:22:51;99234.21;;;16.70;41.80
35291;BME280;21411;50.024;19.220;2023-04-28T09:25:19;99231.23;;;16.67;40.88
35291;BME280;21411;50.024;19.220;2023-04-28T09:27:48;99229.38;;;16.58;41.03
35291;BME280;21411;50.024;19.220;2023-04-28T09:30:15;99226.69;;;16.70;42.04
35291;BME280;21411;50.024;19.220;2023-04-28T09:32:41;99227.25;;;16.86;41.99
35291;BME280;21411;50.024;19.220;2023-04-28T09:35:09;99219.60;;;16.95;40.64
35291;BME280;21411;50.024;19.220;2023-04-28T09:37:35;99215.97;;;16.94;40.82
35291;BME280;21411;50.024;19.220;2023-04-28T09:40:08;99211.38;;;17.03;40.93
35291;BME280;21411;50.024;19.220;2023-04-28T09:42:37;99204.10;;;17.10;40.30
35291;BME280;21411;50.024;19.220;2023-04-28T09:45:10;99200.28;;;17.12;40.64
35291;BME280;21411;50.024;19.220;2023-04-28T09:47:42;99200.70;;;17.26;40.86
35291;BME280;21411;50.024;19.220;2023-04-28T09:50:10;99196.64;;;17.37;40.88
35291;BME280;21411;50.024;19.220;2023-04-28T09:52:41;99190.48;;;17.29;40.06
35291;BME280;21411;50.024;19.220;2023-04-28T09:55:08;99183.87;;;17.13;39.72
35291;BME280;21411;50.024;19.220;2023-04-28T09:57:37;99185.13;;;17.05;40.44
35291;BME280;21411;50.024;19.220;2023-04-28T10:00:06;99180.81;;;17.15;41.07
35291;BME280;21411;50.024;19.220;2023-04-28T10:02:34;99177.38;;;17.21;40.45
35291;BME280;21411;50.024;19.220;2023-04-28T10:05:02;99174.05;;;17.26;41.08
35291;BME280;21411;50.024;19.220;2023-04-28T10:07:31;99172.11;;;17.33;40.82
35291;BME280;21411;50.024;19.220;2023-04-28T10:10:00;99167.66;;;17.41;41.10
35291;BME280;21411;50.024;19.220;2023-04-28T10:12:27;99170.29;;;17.51;41.02
35291;BME280;21411;50.024;19.220;2023-04-28T10:14:53;99165.39;;;17.58;40.70
35291;BME280;21411;50.024;19.220;2023-04-28T10:17:21;99160.98;;;17.63;40.43
35291;BME280;21411;50.024;19.220;2023-04-28T10:19:49;99159.39;;;17.60;39.57
35291;BME280;21411;50.024;19.220;2023-04-28T10:25:28;99149.80;;;17.32;38.77
35291;BME280;21411;50.024;19.220;2023-04-28T10:27:57;99148.78;;;17.31;38.50
35291;BME280;21411;50.024;19.220;2023-04-28T10:30:25;99142.71;;;17.29;38.45
35291;BME280;21411;50.024;19.220;2023-04-28T10:35:43;99131.83;;;17.32;38.54
35291;BME280;21411;50.024;19.220;2023-04-28T10:38:18;99130.11;;;17.39;38.51
35291;BME280;21411;50.024;19.220;2023-04-28T10:40:48;99120.90;;;17.36;38.18
35291;BME280;21411;50.024;19.220;2023-04-28T10:48:50;99110.64;;;17.72;39.26
35291;BME280;21411;50.024;19.220;2023-04-28T10:56:10;99104.20;;;17.82;39.04
35291;BME280;21411;50.024;19.220;2023-04-28T10:58:38;99097.16;;;17.94;38.95
35291;BME280;21411;50.024;19.220;2023-04-28T11:03:55;99088.48;;;18.15;38.65
35291;BME280;21411;50.024;19.220;2023-04-28T11:06:37;99080.39;;;18.20;38.36
35291;BME280;21411;50.024;19.220;2023-04-28T11:16:51;99075.95;;;18.49;38.63
35291;BME280;21411;50.024;19.220;2023-04-28T11:19:23;99075.20;;;18.55;38.70
35291;BME280;21411;50.024;19.220;2023-04-28T11:21:51;99074.67;;;18.57;38.12
35291;BME280;21411;50.024;19.220;2023-04-28T11:24:18;99069.40;;;18.57;38.50
35291;BME280;21411;50.024;19.220;2023-04-28T11:26:45;99070.31;;;18.62;37.96
35291;BME280;21411;50.024;19.220;2023-04-28T11:29:12;99064.48;;;18.59;37.49
35291;BME280;21411;50.024;19.220;2023-04-28T11:31:40;99056.54;;;18.49;36.88
35291;BME280;21411;50.024;19.220;2023-04-28T11:34:18;99053.48;;;18.12;35.67
35291;BME280;21411;50.024;19.220;2023-04-28T11:36:45;99054.99;;;17.91;36.32
35291;BME280;21411;50.024;19.220;2023-04-28T11:39:12;99051.15;;;17.86;35.72
35291;BME280;21411;50.024;19.220;2023-04-28T11:41:41;99046.60;;;17.73;35.27
35291;BME280;21411;50.024;19.220;2023-04-28T11:44:15;99045.02;;;17.71;35.53
35291;BME280;21411;50.024;19.220;2023-04-28T11:46:58;99047.02;;;17.73;35.62
35291;BME280;21411;50.024;19.220;2023-04-28T11:49:27;99046.64;;;17.84;36.09
35291;BME280;21411;50.024;19.220;2023-04-28T11:51:55;99041.19;;;17.98;36.14
35291;BME280;21411;50.024;19.220;2023-04-28T11:54:27;99036.09;;;18.10;35.94
35291;BME280;21411;50.024;19.220;2023-04-28T11:56:55;99037.67;;;18.21;36.53
35291;BME280;21411;50.024;19.220;2023-04-28T11:59:30;99036.21;;;18.38;36.85
35291;BME280;21411;50.024;19.220;2023-04-28T12:02:05;99032.27;;;18.43;36.60
35291;BME280;21411;50.024;19.220;2023-04-28T12:09:30;99024.81;;;18.38;36.41
35291;BME280;21411;50.024;19.220;2023-04-28T12:12:02;99022.80;;;18.30;35.71
35291;BME280;21411;50.024;19.220;2023-04-28T12:14:31;99018.94;;;18.20;35.57
35291;BME280;21411;50.024;19.220;2023-04-28T12:17:01;99014.36;;;18.26;36.23
35291;BME280;21411;50.024;19.220;2023-04-28T12:19:27;99008.59;;;18.32;35.83
35291;BME280;21411;50.024;19.220;2023-04-28T12:22:12;99003.49;;;18.25;34.83
35291;BME280;21411;50.024;19.220;2023-04-28T12:28:23;99001.67;;;18.12;35.75
35291;BME280;21411;50.024;19.220;2023-04-28T12:31:02;98999.12;;;18.26;36.78
35291;BME280;21411;50.024;19.220;2023-04-28T12:33:29;98992.12;;;18.44;36.62
35291;BME280;21411;50.024;19.220;2023-04-28T12:35:56;98989.48;;;18.57;36.56
35291;BME280;21411;50.024;19.220;2023-04-28T12:38:23;98984.61;;;18.66;36.23
35291;BME280;21411;50.024;19.220;2023-04-28T12:40:50;98980.53;;;18.75;36.55
35291;BME280;21411;50.024;19.220;2023-04-28T12:43:16;98976.86;;;18.86;36.69
35291;BME280;21411;50.024;19.220;2023-04-28T12:45:43;98973.25;;;18.99;36.34
35291;BME280;21411;50.024;19.220;2023-04-28T12:48:10;98968.02;;;18.99;35.47
35291;BME280;21411;50.024;19.220;2023-04-28T12:50:37;98963.43;;;18.89;35.06
35291;BME280;21411;50.024;19.220;2023-04-28T12:53:03;98963.67;;;18.83;34.78
35291;BME280;21411;50.024;19.220;2023-04-28T12:55:30;98954.92;;;18.82;34.72
35291;BME280;21411;50.024;19.220;2023-04-28T12:57:56;98953.39;;;18.75;33.79
35291;BME280;21411;50.024;19.220;2023-04-28T13:00:23;98947.71;;;18.56;33.81
35291;BME280;21411;50.024;19.220;2023-04-28T13:02:50;98944.28;;;18.49;34.22
35291;BME280;21411;50.024;19.220;2023-04-28T13:05:18;98939.52;;;18.53;34.88
35291;BME280;21411;50.024;19.220;2023-04-28T13:07:47;98938.99;;;18.62;35.21
35291;BME280;21411;50.024;19.220;2023-04-28T13:10:15;98936.43;;;18.73;35.08
35291;BME280;21411;50.024;19.220;2023-04-28T13:12:43;98930.39;;;18.71;34.16
35291;BME280;21411;50.024;19.220;2023-04-28T13:15:10;98929.77;;;18.64;33.46
35291;BME280;21411;50.024;19.220;2023-04-28T13:17:36;98929.08;;;18.48;33.20
35291;BME280;21411;50.024;19.220;2023-04-28T13:20:04;98922.41;;;18.34;33.77
35291;BME280;21411;50.024;19.220;2023-04-28T13:22:31;98917.30;;;18.32;34.26
35291;BME280;21411;50.024;19.220;2023-04-28T13:24:58;98914.78;;;18.36;34.39
35291;BME280;21411;50.024;19.220;2023-04-28T13:27:24;98906.77;;;18.42;34.53
35291;BME280;21411;50.024;19.220;2023-04-28T13:29:51;98905.20;;;18.55;35.37
35291;BME280;21411;50.024;19.220;2023-04-28T13:32:17;98900.70;;;18.71;35.05
35291;BME280;21411;50.024;19.220;2023-04-28T13:34:44;98897.87;;;18.74;34.82
35291;BME280;21411;50.024;19.220;2023-04-28T13:37:11;98898.61;;;18.79;34.95
35291;BME280;21411;50.024;19.220;2023-04-28T13:39:37;98898.64;;;18.80;34.31
35291;BME280;21411;50.024;19.220;2023-04-28T13:42:04;98896.58;;;18.78;34.23
35291;BME280;21411;50.024;19.220;2023-04-28T13:44:31;98892.00;;;18.75;33.66
35291;BME280;21411;50.024;19.220;2023-04-28T13:46:58;98890.42;;;18.69;33.43
35291;BME280;21411;50.024;19.220;2023-04-28T13:49:25;98885.73;;;18.67;33.32
35291;BME280;21411;50.024;19.220;2023-04-28T13:51:51;98882.05;;;18.64;33.40
35291;BME280;21411;50.024;19.220;2023-04-28T13:54:18;98882.25;;;18.70;34.10
35291;BME280;21411;50.024;19.220;2023-04-28T13:56:44;98875.92;;;18.83;34.64
35291;BME280;21411;50.024;19.220;2023-04-28T14:02:51;98863.83;;;19.09;35.54
35291;BME280;21411;50.024;19.220;2023-04-28T14:05:18;98864.29;;;19.20;35.76
35291;BME280;21411;50.024;19.220;2023-04-28T14:07:45;98866.02;;;19.29;35.58
35291;BME280;21411;50.024;19.220;2023-04-28T14:10:11;98867.04;;;19.35;35.84
35291;BME280;21411;50.024;19.220;2023-04-28T14:12:38;98864.78;;;19.39;35.53
35291;BME280;21411;50.024;19.220;2023-04-28T14:15:05;98865.98;;;19.36;35.06
35291;BME280;21411;50.024;19.220;2023-04-28T14:17:32;98866.98;;;19.32;35.20
35291;BME280;21411;50.024;19.220;2023-04-28T14:20:01;98866.65;;;19.30;35.49
35291;BME280;21411;50.024;19.220;2023-04-28T14:22:33;98866.73;;;19.36;35.78
35291;BME280;21411;50.024;19.220;2023-04-28T14:25:00;98863.93;;;19.44;34.58
35291;BME280;21411;50.024;19.220;2023-04-28T14:27:26;98859.23;;;19.37;34.75
35291;BME280;21411;50.024;19.220;2023-04-28T14:29:54;98859.60;;;19.42;34.30
35291;BME280;21411;50.024;19.220;2023-04-28T14:32:21;98856.25;;;19.51;34.49
35291;BME280;21411;50.024;19.220;2023-04-28T14:34:48;98850.97;;;19.69;34.59
35291;BME280;21411;50.024;19.220;2023-04-28T14:37:15;98852.73;;;19.83;34.01
35291;BME280;21411;50.024;19.220;2023-04-28T14:39:42;98850.02;;;19.88;33.37
35291;BME280;21411;50.024;19.220;2023-04-28T14:42:09;98847.54;;;19.89;33.25
35291;BME280;21411;50.024;19.220;2023-04-28T14:44:35;98844.42;;;20.00;33.07
35291;BME280;21411;50.024;19.220;2023-04-28T14:47:02;98841.31;;;20.01;32.48
35291;BME280;21411;50.024;19.220;2023-04-28T14:49:29;98842.43;;;19.87;32.33
35291;BME280;21411;50.024;19.220;2023-04-28T14:51:56;98842.70;;;19.72;32.29
35291;BME280;21411;50.024;19.220;2023-04-28T14:54:23;98841.73;;;19.56;32.23
35291;BME280;21411;50.024;19.220;2023-04-28T14:56:49;98842.58;;;19.48;32.62
35291;BME280;21411;50.024;19.220;2023-04-28T14:59:16;98840.11;;;19.43;32.67
35291;BME280;21411;50.024;19.220;2023-04-28T15:01:43;98839.56;;;19.42;32.79
35291;BME280;21411;50.024;19.220;2023-04-28T15:04:10;98840.98;;;19.40;32.47
35291;BME280;21411;50.024;19.220;2023-04-28T15:06:37;98840.52;;;19.27;32.35
35291;BME280;21411;50.024;19.220;2023-04-28T15:09:04;98838.83;;;19.21;32.08
35291;BME280;21411;50.024;19.220;2023-04-28T15:11:30;98840.98;;;19.17;32.57
35291;BME280;21411;50.024;19.220;2023-04-28T15:13:57;98841.61;;;19.32;33.07
35291;BME280;21411;50.024;19.220;2023-04-28T15:16:23;98839.29;;;19.40;32.84
35291;BME280;21411;50.024;19.220;2023-04-28T15:18:50;98837.55;;;19.38;32.96
35291;BME280;21411;50.024;19.220;2023-04-28T15:21:17;98840.30;;;19.34;33.35
35291;BME280;21411;50.024;19.220;2023-04-28T15:23:43;98835.64;;;19.27;33.01
35291;BME280;21411;50.024;19.220;2023-04-28T15:26:10;98835.95;;;19.19;33.10
35291;BME280;21411;50.024;19.220;2023-04-28T15:28:36;98832.84;;;19.23;33.16
35291;BME280;21411;50.024;19.220;2023-04-28T15:31:03;98833.13;;;19.28;33.19
35291;BME280;21411;50.024;19.220;2023-04-28T15:33:30;98833.02;;;19.27;33.33
35291;BME280;21411;50.024;19.220;2023-04-28T15:35:56;98828.50;;;19.23;33.25
35291;BME280;21411;50.024;19.220;2023-04-28T15:38:23;98829.28;;;19.16;33.34
35291;BME280;21411;50.024;19.220;2023-04-28T15:40:49;98828.23;;;19.13;33.16
35291;BME280;21411;50.024;19.220;2023-04-28T15:43:16;98827.82;;;19.13;33.23
35291;BME280;21411;50.024;19.220;2023-04-28T15:45:42;98819.10;;;19.11;33.22
35291;BME280;21411;50.024;19.220;2023-04-28T15:48:12;98813.17;;;19.09;33.21
35291;BME280;21411;50.024;19.220;2023-04-28T15:50:39;98811.30;;;18.96;33.36
35291;BME280;21411;50.024;19.220;2023-04-28T15:53:05;98812.48;;;18.85;33.55
35291;BME280;21411;50.024;19.220;2023-04-28T15:55:32;98811.86;;;18.79;33.95
35291;BME280;21411;50.024;19.220;2023-04-28T15:57:59;98810.02;;;18.76;34.43
35291;BME280;21411;50.024;19.220;2023-04-28T16:00:26;98810.08;;;18.71;34.21
35291;BME280;21411;50.024;19.220;2023-04-28T16:02:53;98807.52;;;18.63;34.17
35291;BME280;21411;50.024;19.220;2023-04-28T16:05:19;98802.73;;;18.54;34.14
35291;BME280;21411;50.024;19.220;2023-04-28T16:07:46;98799.70;;;18.43;34.20
35291;BME280;21411;50.024;19.220;2023-04-28T16:10:14;98796.23;;;18.27;33.93
35291;BME280;21411;50.024;19.220;2023-04-28T16:12:42;98789.55;;;18.12;33.94
35291;BME280;21411;50.024;19.220;2023-04-28T16:15:10;98786.21;;;18.02;34.29
35291;BME280;21411;50.024;19.220;2023-04-28T16:17:38;98786.88;;;17.97;34.52
35291;BME280;21411;50.024;19.220;2023-04-28T16:20:06;98788.02;;;17.91;34.40
35291;BME280;21411;50.024;19.220;2023-04-28T16:22:34;98790.12;;;17.83;34.60
35291;BME280;21411;50.024;19.220;2023-04-28T16:25:01;98796.45;;;17.79;34.85
35291;BME280;21411;50.024;19.220;2023-04-28T16:27:29;98796.14;;;17.73;34.92
35291;BME280;21411;50.024;19.220;2023-04-28T16:29:56;98795.46;;;17.65;35.00
35291;BME280;21411;50.024;19.220;2023-04-28T16:32:22;98802.02;;;17.59;35.40
35291;BME280;21411;50.024;19.220;2023-04-28T16:34:49;98799.24;;;17.50;35.82
35291;BME280;21411;50.024;19.220;2023-04-28T16:37:16;98796.58;;;17.43;35.94
35291;BME280;21411;50.024;19.220;2023-04-28T16:39:43;98794.23;;;17.34;36.11
35291;BME280;21411;50.024;19.220;2023-04-28T16:42:09;98788.02;;;17.26;36.26
35291;BME280;21411;50.024;19.220;2023-04-28T16:44:36;98785.52;;;17.19;36.45